sensor_id;sensor_type;location;lat;lon;timestamp;pressure;altitude;pressure_sealevel;temperature;humidity
27202;BME280;14717;46.924;15.474;2023-03-21T00:01:41;97992.78;;;7.11;90.21
27202;BME280;14717;46.924;15.474;2023-03-21T00:04:06;97996.47;;;6.85;91.46
27202;BME280;14717;46.924;15.474;2023-03-21T00:06:31;97993.44;;;6.81;92.09
27202;BME280;14717;46.924;15.474;2023-03-21T00:08:57;98000.34;;;6.84;91.96
27202;BME280;14717;46.924;15.474;2023-03-21T00:11:22;97995.97;;;6.88;91.58
27202;BME280;14717;46.924;15.474;2023-03-21T00:13:47;97994.88;;;6.89;91.09
27202;BME280;14717;46.924;15.474;2023-03-21T00:16:16;97993.13;;;6.73;94.96
27202;BME280;14717;46.924;15.474;2023-03-21T00:18:44;97991.94;;;6.59;95.87
27202;BME280;14717;46.924;15.474;2023-03-21T00:21:12;97983.34;;;6.46;96.72
27202;BME280;14717;46.924;15.474;2023-03-21T00:23:43;97983.69;;;6.54;95.40
27202;BME280;14717;46.924;15.474;2023-03-21T00:26:09;97988.31;;;6.54;94.32
27202;BME280;14717;46.924;15.474;2023-03-21T00:28:35;97981.50;;;6.56;94.61
27202;BME280;14717;46.924;15.474;2023-03-21T00:31:01;97985.34;;;6.60;94.88
27202;BME280;14717;46.924;15.474;2023-03-21T00:33:27;97982.31;;;6.57;94.55
27202;BME280;14717;46.924;15.474;2023-03-21T00:35:53;97986.41;;;6.49;94.89
27202;BME280;14717;46.924;15.474;2023-03-21T00:38:19;97983.69;;;6.54;95.83
27202;BME280;14717;46.924;15.474;2023-03-21T00:40:45;97980.38;;;6.52;96.00
27202;BME280;14717;46.924;15.474;2023-03-21T00:43:11;97976.31;;;6.60;95.68
27202;BME280;14717;46.924;15.474;2023-03-21T00:45:38;97988.50;;;6.83;94.38
27202;BME280;14717;46.924;15.474;2023-03-21T00:48:04;97973.50;;;6.96;93.51
27202;BME280;14717;46.924;15.474;2023-03-21T00:50:30;97978.25;;;7.10;93.10
27202;BME280;14717;46.924;15.474;2023-03-21T00:52:57;97973.75;;;6.94;92.95
27202;BME280;14717;46.924;15.474;2023-03-21T00:55:22;97966.84;;;6.82;94.13
27202;BME280;14717;46.924;15.474;2023-03-21T00:57:47;97970.94;;;6.79;94.85
27202;BME280;14717;46.924;15.474;2023-03-21T01:00:13;97966.81;;;6.77;95.20
27202;BME280;14717;46.924;15.474;2023-03-21T01:02:39;97969.75;;;6.66;96.04
27202;BME280;14717;46.924;15.474;2023-03-21T01:05:24;97978.56;;;6.68;96.41
27202;BME280;14717;46.924;15.474;2023-03-21T01:08:10;97975.03;;;6.72;96.54
27202;BME280;14717;46.924;15.474;2023-03-21T01:10:40;97969.06;;;6.90;95.50
27202;BME280;14717;46.924;15.474;2023-03-21T01:13:07;97971.75;;;6.80;95.20
27202;BME280;14717;46.924;15.474;2023-03-21T01:15:34;97983.28;;;6.77;95.88
27202;BME280;14717;46.924;15.474;2023-03-21T01:17:59;97978.31;;;6.74;96.65
27202;BME280;14717;46.924;15.474;2023-03-21T01:20:25;97962.16;;;6.78;96.78
27202;BME280;14717;46.924;15.474;2023-03-21T01:22:51;97972.66;;;6.90;95.75
27202;BME280;14717;46.924;15.474;2023-03-21T01:25:17;97975.94;;;6.92;95.23
27202;BME280;14717;46.924;15.474;2023-03-21T01:27:42;97964.75;;;7.04;95.19
27202;BME280;14717;46.924;15.474;2023-03-21T01:30:08;97961.22;;;7.13;94.78
27202;BME280;14717;46.924;15.474;2023-03-21T01:32:33;97966.44;;;7.19;94.31
27202;BME280;14717;46.924;15.474;2023-03-21T01:34:59;97960.94;;;7.19;94.09
27202;BME280;14717;46.924;15.474;2023-03-21T01:37:24;97959.34;;;7.23;93.96
27202;BME280;14717;46.924;15.474;2023-03-21T01:39:51;97957.16;;;7.30;93.50
27202;BME280;14717;46.924;15.474;2023-03-21T01:42:16;97960.97;;;7.29;93.46
27202;BME280;14717;46.924;15.474;2023-03-21T01:45:05;97963.19;;;7.32;93.71
27202;BME280;14717;46.924;15.474;2023-03-21T01:47:31;97957.94;;;7.26;93.62
27202;BME280;14717;46.924;15.474;2023-03-21T01:49:59;97960.44;;;7.32;93.63
27202;BME280;14717;46.924;15.474;2023-03-21T01:52:30;97951.97;;;7.44;93.25
27202;BME280;14717;46.924;15.474;2023-03-21T01:54:57;97948.69;;;7.52;92.75
27202;BME280;14717;46.924;15.474;2023-03-21T01:57:30;97945.16;;;7.56;92.27
27202;BME280;14717;46.924;15.474;2023-03-21T02:00:00;97942.91;;;7.43;92.99
27202;BME280;14717;46.924;15.474;2023-03-21T02:02:39;97937.94;;;7.40;93.65
27202;BME280;14717;46.924;15.474;2023-03-21T02:05:20;97934.13;;;7.41;93.61
27202;BME280;14717;46.924;15.474;2023-03-21T02:07:47;97938.50;;;7.42;93.29
27202;BME280;14717;46.924;15.474;2023-03-21T02:10:15;97942.09;;;7.48;93.61
27202;BME280;14717;46.924;15.474;2023-03-21T02:12:41;97928.63;;;7.41;94.17
27202;BME280;14717;46.924;15.474;2023-03-21T02:15:07;97923.13;;;7.36;94.03
27202;BME280;14717;46.924;15.474;2023-03-21T02:20:51;97916.03;;;7.75;92.58
27202;BME280;14717;46.924;15.474;2023-03-21T02:23:59;97919.88;;;7.74;92.39
27202;BME280;14717;46.924;15.474;2023-03-21T02:26:55;97920.97;;;7.73;91.96
27202;BME280;14717;46.924;15.474;2023-03-21T02:29:46;97919.31;;;7.77;91.97
27202;BME280;14717;46.924;15.474;2023-03-21T02:37:56;97916.84;;;7.75;90.30
27202;BME280;14717;46.924;15.474;2023-03-21T02:40:58;97915.75;;;7.71;90.76
27202;BME280;14717;46.924;15.474;2023-03-21T02:43:41;97904.75;;;7.71;90.62
27202;BME280;14717;46.924;15.474;2023-03-21T02:46:27;97911.91;;;7.67;90.04
27202;BME280;14717;46.924;15.474;2023-03-21T02:49:00;97906.41;;;7.63;90.40
27202;BME280;14717;46.924;15.474;2023-03-21T02:51:29;97911.91;;;7.67;90.38
27202;BME280;14717;46.924;15.474;2023-03-21T02:54:01;97914.06;;;7.70;89.75
27202;BME280;14717;46.924;15.474;2023-03-21T02:56:28;97909.41;;;7.61;89.94
27202;BME280;14717;46.924;15.474;2023-03-21T02:58:55;97906.66;;;7.51;89.74
27202;BME280;14717;46.924;15.474;2023-03-21T03:01:21;97913.25;;;7.50;89.38
27202;BME280;14717;46.924;15.474;2023-03-21T03:03:50;97906.06;;;7.49;89.66
27202;BME280;14717;46.924;15.474;2023-03-21T03:06:18;97915.41;;;7.28;90.05
27202;BME280;14717;46.924;15.474;2023-03-21T03:16:49;97913.72;;;7.22;89.41
27202;BME280;14717;46.924;15.474;2023-03-21T03:19:30;97915.06;;;7.10;89.57
27202;BME280;14717;46.924;15.474;2023-03-21T03:22:12;97914.69;;;6.82;90.78
27202;BME280;14717;46.924;15.474;2023-03-21T03:24:46;97918.53;;;6.86;90.51
27202;BME280;14717;46.924;15.474;2023-03-21T03:27:19;97919.09;;;6.88;89.93
27202;BME280;14717;46.924;15.474;2023-03-21T03:29:49;97926.50;;;6.87;89.39
27202;BME280;14717;46.924;15.474;2023-03-21T03:32:23;97922.38;;;6.90;88.76
27202;BME280;14717;46.924;15.474;2023-03-21T03:34:52;97934.06;;;6.61;90.22
27202;BME280;14717;46.924;15.474;2023-03-21T03:37:23;97930.09;;;6.42;90.69
27202;BME280;14717;46.924;15.474;2023-03-21T03:42:57;97929.91;;;6.17;91.92
27202;BME280;14717;46.924;15.474;2023-03-21T03:45:30;97921.44;;;6.19;92.60
27202;BME280;14717;46.924;15.474;2023-03-21T03:51:15;97929.44;;;6.25;92.08
27202;BME280;14717;46.924;15.474;2023-03-21T03:53:45;97927.09;;;6.43;91.69
27202;BME280;14717;46.924;15.474;2023-03-21T03:56:15;97929.63;;;6.55;91.06
27202;BME280;14717;46.924;15.474;2023-03-21T03:58:41;97927.91;;;6.44;91.22
27202;BME280;14717;46.924;15.474;2023-03-21T04:01:06;97935.41;;;6.58;91.36
27202;BME280;14717;46.924;15.474;2023-03-21T04:03:34;97942.31;;;6.66;90.72
27202;BME280;14717;46.924;15.474;2023-03-21T04:06:01;97928.88;;;6.69;91.37
27202;BME280;14717;46.924;15.474;2023-03-21T04:08:28;97926.69;;;6.71;91.82
27202;BME280;14717;46.924;15.474;2023-03-21T04:10:54;97922.03;;;6.77;91.25
27202;BME280;14717;46.924;15.474;2023-03-21T04:13:19;97923.72;;;6.78;91.47
27202;BME280;14717;46.924;15.474;2023-03-21T04:15:45;97925.06;;;6.75;91.48
27202;BME280;14717;46.924;15.474;2023-03-21T04:18:10;97922.59;;;6.78;91.71
27202;BME280;14717;46.924;15.474;2023-03-21T04:20:36;97924.25;;;6.79;91.59
27202;BME280;14717;46.924;15.474;2023-03-21T04:23:01;97928.28;;;6.57;92.12
27202;BME280;14717;46.924;15.474;2023-03-21T04:25:27;97932.63;;;6.53;92.56
27202;BME280;14717;46.924;15.474;2023-03-21T04:27:53;97930.66;;;6.49;92.74
27202;BME280;14717;46.924;15.474;2023-03-21T04:30:20;97933.75;;;6.52;92.13
27202;BME280;14717;46.924;15.474;2023-03-21T04:32:49;97937.03;;;6.54;92.36
27202;BME280;14717;46.924;15.474;2023-03-21T04:35:18;97935.38;;;6.53;92.01
27202;BME280;14717;46.924;15.474;2023-03-21T04:37:45;97939.13;;;6.37;91.76
27202;BME280;14717;46.924;15.474;2023-03-21T04:40:10;97935.59;;;6.47;91.66
27202;BME280;14717;46.924;15.474;2023-03-21T04:42:36;97945.31;;;6.18;91.42
27202;BME280;14717;46.924;15.474;2023-03-21T04:45:02;97936.41;;;6.01;92.60
27202;BME280;14717;46.924;15.474;2023-03-21T04:47:28;97937.84;;;6.14;93.01
27202;BME280;14717;46.924;15.474;2023-03-21T04:49:54;97937.69;;;5.94;92.19
27202;BME280;14717;46.924;15.474;2023-03-21T04:52:21;97943.19;;;5.94;92.22
27202;BME280;14717;46.924;15.474;2023-03-21T04:54:46;97947.06;;;6.03;92.12
27202;BME280;14717;46.924;15.474;2023-03-21T04:57:11;97948.88;;;5.88;90.93
27202;BME280;14717;46.924;15.474;2023-03-21T04:59:37;97944.81;;;5.90;91.43
27202;BME280;14717;46.924;15.474;2023-03-21T05:02:02;97939.78;;;5.82;90.94
27202;BME280;14717;46.924;15.474;2023-03-21T05:04:28;97953.28;;;5.62;92.15
27202;BME280;14717;46.924;15.474;2023-03-21T05:06:53;97944.97;;;5.52;92.95
27202;BME280;14717;46.924;15.474;2023-03-21T05:09:20;97943.94;;;5.63;92.72
27202;BME280;14717;46.924;15.474;2023-03-21T05:11:46;97945.16;;;5.72;92.06
27202;BME280;14717;46.924;15.474;2023-03-21T05:14:18;97954.78;;;5.75;91.52
27202;BME280;14717;46.924;15.474;2023-03-21T05:16:44;97954.56;;;5.81;91.53
27202;BME280;14717;46.924;15.474;2023-03-21T05:19:18;97954.06;;;5.84;91.49
27202;BME280;14717;46.924;15.474;2023-03-21T05:21:45;97955.13;;;5.83;91.67
27202;BME280;14717;46.924;15.474;2023-03-21T05:24:16;97958.41;;;5.80;91.18
27202;BME280;14717;46.924;15.474;2023-03-21T05:26:43;97968.59;;;5.63;92.91
27202;BME280;14717;46.924;15.474;2023-03-21T05:29:08;97961.84;;;5.45;93.00
27202;BME280;14717;46.924;15.474;2023-03-21T05:31:34;97966.03;;;5.52;93.89
27202;BME280;14717;46.924;15.474;2023-03-21T05:34:01;97968.00;;;5.56;93.00
27202;BME280;14717;46.924;15.474;2023-03-21T05:36:26;97968.66;;;5.68;92.75
27202;BME280;14717;46.924;15.474;2023-03-21T05:38:52;97962.09;;;5.69;92.49
27202;BME280;14717;46.924;15.474;2023-03-21T05:41:17;97966.25;;;5.72;92.21
27202;BME280;14717;46.924;15.474;2023-03-21T05:43:43;97964.84;;;5.69;91.49
27202;BME280;14717;46.924;15.474;2023-03-21T05:46:09;97963.97;;;5.64;91.62
27202;BME280;14717;46.924;15.474;2023-03-21T05:48:34;97967.59;;;5.69;92.09
27202;BME280;14717;46.924;15.474;2023-03-21T05:51:01;97967.19;;;5.82;91.18
27202;BME280;14717;46.924;15.474;2023-03-21T05:53:26;97970.81;;;5.88;90.68
27202;BME280;14717;46.924;15.474;2023-03-21T05:55:52;97966.03;;;5.78;90.47
27202;BME280;14717;46.924;15.474;2023-03-21T05:58:17;97978.69;;;5.79;91.50
27202;BME280;14717;46.924;15.474;2023-03-21T06:00:43;97976.19;;;5.78;92.28
27202;BME280;14717;46.924;15.474;2023-03-21T06:03:08;97982.38;;;5.68;92.32
27202;BME280;14717;46.924;15.474;2023-03-21T06:05:33;97979.16;;;5.50;93.09
27202;BME280;14717;46.924;15.474;2023-03-21T06:07:59;97981.84;;;5.71;93.62
27202;BME280;14717;46.924;15.474;2023-03-21T06:10:24;97977.69;;;5.90;92.43
27202;BME280;14717;46.924;15.474;2023-03-21T06:12:49;97977.19;;;5.98;91.72
27202;BME280;14717;46.924;15.474;2023-03-21T06:15:15;97987.75;;;5.85;92.33
27202;BME280;14717;46.924;15.474;2023-03-21T06:17:40;97986.81;;;6.00;92.09
27202;BME280;14717;46.924;15.474;2023-03-21T06:20:07;97990.00;;;6.19;90.93
27202;BME280;14717;46.924;15.474;2023-03-21T06:22:33;97992.34;;;6.36;90.64
27202;BME280;14717;46.924;15.474;2023-03-21T06:24:59;97988.09;;;6.60;90.08
27202;BME280;14717;46.924;15.474;2023-03-21T06:27:24;97983.53;;;6.71;88.96
27202;BME280;14717;46.924;15.474;2023-03-21T06:29:50;97994.84;;;6.84;89.44
27202;BME280;14717;46.924;15.474;2023-03-21T06:32:16;97983.44;;;7.07;88.96
27202;BME280;14717;46.924;15.474;2023-03-21T06:34:41;97994.59;;;7.46;86.97
27202;BME280;14717;46.924;15.474;2023-03-21T06:37:07;97991.34;;;7.69;86.01
27202;BME280;14717;46.924;15.474;2023-03-21T06:39:32;97983.69;;;7.96;82.61
27202;BME280;14717;46.924;15.474;2023-03-21T06:41:58;97983.72;;;8.05;83.37
27202;BME280;14717;46.924;15.474;2023-03-21T06:44:23;97991.16;;;8.20;82.04
27202;BME280;14717;46.924;15.474;2023-03-21T06:46:50;97990.06;;;8.46;80.90
27202;BME280;14717;46.924;15.474;2023-03-21T06:49:16;97991.44;;;8.58;80.29
27202;BME280;14717;46.924;15.474;2023-03-21T06:51:41;97991.41;;;8.88;79.48
27202;BME280;14717;46.924;15.474;2023-03-21T06:54:07;97993.56;;;9.00;78.24
27202;BME280;14717;46.924;15.474;2023-03-21T06:56:32;97995.19;;;9.11;78.27
27202;BME280;14717;46.924;15.474;2023-03-21T06:58:58;97984.22;;;8.91;78.34
27202;BME280;14717;46.924;15.474;2023-03-21T07:01:23;97993.00;;;8.93;78.73
27202;BME280;14717;46.924;15.474;2023-03-21T07:03:52;97990.25;;;8.98;78.93
27202;BME280;14717;46.924;15.474;2023-03-21T07:06:18;97985.78;;;9.17;79.66
27202;BME280;14717;46.924;15.474;2023-03-21T07:08:43;97990.34;;;9.51;77.47
27202;BME280;14717;46.924;15.474;2023-03-21T07:11:09;97987.16;;;9.73;76.14
27202;BME280;14717;46.924;15.474;2023-03-21T07:13:35;97984.38;;;9.77;74.92
27202;BME280;14717;46.924;15.474;2023-03-21T07:16:00;97993.69;;;9.91;74.97
27202;BME280;14717;46.924;15.474;2023-03-21T07:18:26;97984.91;;;9.84;74.26
27202;BME280;14717;46.924;15.474;2023-03-21T07:20:52;97978.53;;;9.89;74.12
27202;BME280;14717;46.924;15.474;2023-03-21T07:23:18;97987.53;;;10.09;73.73
27202;BME280;14717;46.924;15.474;2023-03-21T07:25:47;97988.47;;;10.33;73.48
27202;BME280;14717;46.924;15.474;2023-03-21T07:28:12;97981.13;;;10.52;72.68
27202;BME280;14717;46.924;15.474;2023-03-21T07:30:38;97980.19;;;10.61;72.31
27202;BME280;14717;46.924;15.474;2023-03-21T07:33:04;97984.25;;;10.73;71.15
27202;BME280;14717;46.924;15.474;2023-03-21T07:35:30;97984.31;;;10.92;71.70
27202;BME280;14717;46.924;15.474;2023-03-21T07:37:55;97981.56;;;11.15;70.62
27202;BME280;14717;46.924;15.474;2023-03-21T07:40:20;97986.13;;;11.29;70.24
27202;BME280;14717;46.924;15.474;2023-03-21T07:42:47;97991.75;;;11.48;70.31
27202;BME280;14717;46.924;15.474;2023-03-21T07:45:13;97991.25;;;11.64;68.11
27202;BME280;14717;46.924;15.474;2023-03-21T07:47:42;97985.53;;;11.79;69.17
27202;BME280;14717;46.924;15.474;2023-03-21T07:50:07;97985.09;;;11.90;67.69
27202;BME280;14717;46.924;15.474;2023-03-21T07:52:33;97982.75;;;11.97;66.71
27202;BME280;14717;46.924;15.474;2023-03-21T07:54:58;97984.94;;;12.00;65.98
27202;BME280;14717;46.924;15.474;2023-03-21T07:57:24;97984.56;;;12.06;67.08
27202;BME280;14717;46.924;15.474;2023-03-21T07:59:50;97982.53;;;12.12;67.15
27202;BME280;14717;46.924;15.474;2023-03-21T08:02:16;97986.59;;;12.19;66.89
27202;BME280;14717;46.924;15.474;2023-03-21T08:04:43;97984.84;;;12.41;65.69
27202;BME280;14717;46.924;15.474;2023-03-21T08:07:09;97979.56;;;12.58;63.88
27202;BME280;14717;46.924;15.474;2023-03-21T08:09:35;97970.38;;;12.76;64.21
27202;BME280;14717;46.924;15.474;2023-03-21T08:12:02;97975.00;;;12.99;62.85
27202;BME280;14717;46.924;15.474;2023-03-21T08:14:27;97970.28;;;13.13;61.97
27202;BME280;14717;46.924;15.474;2023-03-21T08:16:52;97971.03;;;13.18;60.68
27202;BME280;14717;46.924;15.474;2023-03-21T08:19:18;97956.50;;;13.21;62.03
27202;BME280;14717;46.924;15.474;2023-03-21T08:21:48;97950.25;;;13.42;60.87
27202;BME280;14717;46.924;15.474;2023-03-21T08:24:14;97952.72;;;13.44;60.42
27202;BME280;14717;46.924;15.474;2023-03-21T08:26:40;97950.69;;;13.62;58.39
27202;BME280;14717;46.924;15.474;2023-03-21T08:29:06;97947.38;;;13.74;59.53
27202;BME280;14717;46.924;15.474;2023-03-21T08:31:31;97940.31;;;13.90;58.86
27202;BME280;14717;46.924;15.474;2023-03-21T08:33:57;97948.22;;;14.09;57.67
27202;BME280;14717;46.924;15.474;2023-03-21T08:36:22;97945.50;;;14.31;58.11
27202;BME280;14717;46.924;15.474;2023-03-21T08:38:48;97947.00;;;14.37;56.99
27202;BME280;14717;46.924;15.474;2023-03-21T08:41:18;97943.41;;;14.58;54.94
27202;BME280;14717;46.924;15.474;2023-03-21T08:43:44;97948.91;;;14.50;55.21
27202;BME280;14717;46.924;15.474;2023-03-21T08:46:10;97937.66;;;14.55;55.58
27202;BME280;14717;46.924;15.474;2023-03-21T08:48:35;97936.53;;;14.78;51.77
27202;BME280;14717;46.924;15.474;2023-03-21T08:51:03;97939.91;;;14.96;53.25
27202;BME280;14717;46.924;15.474;2023-03-21T08:53:29;97934.56;;;15.08;53.21
27202;BME280;14717;46.924;15.474;2023-03-21T08:55:54;97936.03;;;15.36;52.54
27202;BME280;14717;46.924;15.474;2023-03-21T08:58:19;97936.91;;;15.45;53.57
27202;BME280;14717;46.924;15.474;2023-03-21T09:00:45;97937.63;;;15.67;53.29
27202;BME280;14717;46.924;15.474;2023-03-21T09:03:10;97939.28;;;15.76;51.65
27202;BME280;14717;46.924;15.474;2023-03-21T09:05:36;97940.66;;;15.87;52.26
27202;BME280;14717;46.924;15.474;2023-03-21T09:08:02;97941.47;;;15.96;50.70
27202;BME280;14717;46.924;15.474;2023-03-21T09:10:27;97942.03;;;16.23;51.96
27202;BME280;14717;46.924;15.474;2023-03-21T09:12:54;97936.94;;;16.34;52.68
27202;BME280;14717;46.924;15.474;2023-03-21T09:15:22;97941.06;;;16.53;49.24
27202;BME280;14717;46.924;15.474;2023-03-21T09:17:49;97931.88;;;16.69;50.39
27202;BME280;14717;46.924;15.474;2023-03-21T09:20:18;97941.69;;;16.75;49.19
27202;BME280;14717;46.924;15.474;2023-03-21T09:22:46;97935.75;;;16.85;49.38
27202;BME280;14717;46.924;15.474;2023-03-21T09:25:13;97928.97;;;17.20;47.24
27202;BME280;14717;46.924;15.474;2023-03-21T09:27:39;97925.16;;;17.33;45.88
27202;BME280;14717;46.924;15.474;2023-03-21T09:30:05;97923.94;;;17.50;45.71
27202;BME280;14717;46.924;15.474;2023-03-21T09:32:33;97924.94;;;17.46;44.78
27202;BME280;14717;46.924;15.474;2023-03-21T09:34:59;97916.22;;;17.48;45.43
27202;BME280;14717;46.924;15.474;2023-03-21T09:37:24;97905.13;;;17.59;45.09
27202;BME280;14717;46.924;15.474;2023-03-21T09:39:50;97906.34;;;17.50;44.96
27202;BME280;14717;46.924;15.474;2023-03-21T09:45:11;97902.06;;;17.81;43.00
27202;BME280;14717;46.924;15.474;2023-03-21T09:47:44;97893.13;;;17.88;42.36
27202;BME280;14717;46.924;15.474;2023-03-21T09:50:36;97902.72;;;18.07;42.63
27202;BME280;14717;46.924;15.474;2023-03-21T09:53:13;97904.66;;;18.35;42.13
27202;BME280;14717;46.924;15.474;2023-03-21T09:55:43;97896.44;;;18.10;39.58
27202;BME280;14717;46.924;15.474;2023-03-21T09:58:24;97892.00;;;18.09;38.42
27202;BME280;14717;46.924;15.474;2023-03-21T10:01:08;97893.53;;;18.27;37.79
27202;BME280;14717;46.924;15.474;2023-03-21T10:03:47;97894.22;;;18.24;37.59
27202;BME280;14717;46.924;15.474;2023-03-21T10:06:15;97890.00;;;18.18;37.87
27202;BME280;14717;46.924;15.474;2023-03-21T10:08:44;97885.47;;;18.05;37.31
27202;BME280;14717;46.924;15.474;2023-03-21T10:11:15;97888.09;;;17.81;38.00
27202;BME280;14717;46.924;15.474;2023-03-21T10:13:53;97891.75;;;17.73;37.85
27202;BME280;14717;46.924;15.474;2023-03-21T10:16:26;97881.41;;;17.94;38.18
27202;BME280;14717;46.924;15.474;2023-03-21T10:18:53;97881.72;;;18.01;37.35
27202;BME280;14717;46.924;15.474;2023-03-21T10:21:24;97874.03;;;18.18;37.55
27202;BME280;14717;46.924;15.474;2023-03-21T10:23:53;97877.72;;;18.31;37.66
27202;BME280;14717;46.924;15.474;2023-03-21T10:26:21;97872.81;;;17.99;38.15
27202;BME280;14717;46.924;15.474;2023-03-21T10:28:48;97874.06;;;18.10;38.96
27202;BME280;14717;46.924;15.474;2023-03-21T10:31:16;97867.28;;;18.39;37.76
27202;BME280;14717;46.924;15.474;2023-03-21T10:33:43;97867.06;;;18.44;36.49
27202;BME280;14717;46.924;15.474;2023-03-21T10:36:13;97858.28;;;18.66;36.17
27202;BME280;14717;46.924;15.474;2023-03-21T10:38:48;97853.56;;;18.90;36.04
27202;BME280;14717;46.924;15.474;2023-03-21T10:41:15;97851.88;;;18.66;35.45
27202;BME280;14717;46.924;15.474;2023-03-21T10:43:41;97848.06;;;18.82;35.44
27202;BME280;14717;46.924;15.474;2023-03-21T10:46:16;97845.56;;;19.01;35.22
27202;BME280;14717;46.924;15.474;2023-03-21T10:48:42;97854.81;;;18.81;35.60
27202;BME280;14717;46.924;15.474;2023-03-21T10:51:16;97862.75;;;18.79;36.75
27202;BME280;14717;46.924;15.474;2023-03-21T10:53:47;97858.72;;;18.88;37.50
27202;BME280;14717;46.924;15.474;2023-03-21T10:56:15;97844.94;;;18.83;36.71
27202;BME280;14717;46.924;15.474;2023-03-21T10:58:43;97851.53;;;18.99;36.57
27202;BME280;14717;46.924;15.474;2023-03-21T11:01:14;97850.88;;;18.82;37.32
27202;BME280;14717;46.924;15.474;2023-03-21T11:03:44;97836.22;;;18.97;36.93
27202;BME280;14717;46.924;15.474;2023-03-21T11:09:00;97835.19;;;18.69;37.67
27202;BME280;14717;46.924;15.474;2023-03-21T11:11:31;97831.94;;;18.67;37.28
27202;BME280;14717;46.924;15.474;2023-03-21T11:14:02;97832.41;;;18.69;37.89
27202;BME280;14717;46.924;15.474;2023-03-21T11:16:42;97832.91;;;18.83;36.98
27202;BME280;14717;46.924;15.474;2023-03-21T11:19:14;97828.13;;;18.83;36.82
27202;BME280;14717;46.924;15.474;2023-03-21T11:21:40;97820.59;;;18.52;36.22
27202;BME280;14717;46.924;15.474;2023-03-21T11:24:13;97815.59;;;18.69;36.97
27202;BME280;14717;46.924;15.474;2023-03-21T11:26:42;97817.97;;;18.91;36.69
27202;BME280;14717;46.924;15.474;2023-03-21T11:29:29;97811.00;;;18.97;37.46
27202;BME280;14717;46.924;15.474;2023-03-21T11:32:22;97811.00;;;18.97;36.92
27202;BME280;14717;46.924;15.474;2023-03-21T11:34:56;97802.09;;;18.83;37.28
27202;BME280;14717;46.924;15.474;2023-03-21T11:40:24;97794.84;;;18.70;36.76
27202;BME280;14717;46.924;15.474;2023-03-21T11:42:51;97790.66;;;18.88;36.58
27202;BME280;14717;46.924;15.474;2023-03-21T11:45:30;97789.97;;;18.91;36.53
27202;BME280;14717;46.924;15.474;2023-03-21T11:47:58;97779.53;;;19.00;38.12
27202;BME280;14717;46.924;15.474;2023-03-21T11:50:35;97779.13;;;18.89;37.09
27202;BME280;14717;46.924;15.474;2023-03-21T11:55:56;97771.00;;;19.32;36.75
27202;BME280;14717;46.924;15.474;2023-03-21T12:02:06;97763.78;;;19.07;36.70
27202;BME280;14717;46.924;15.474;2023-03-21T12:07:26;97760.50;;;19.05;36.88
27202;BME280;14717;46.924;15.474;2023-03-21T12:23:32;97740.25;;;18.64;38.26
27202;BME280;14717;46.924;15.474;2023-03-21T12:26:25;97743.22;;;18.35;39.88
27202;BME280;14717;46.924;15.474;2023-03-21T12:40:35;97711.56;;;19.38;37.08
27202;BME280;14717;46.924;15.474;2023-03-21T12:43:21;97712.66;;;19.22;38.21
27202;BME280;14717;46.924;15.474;2023-03-21T12:45:52;97703.03;;;19.47;40.24
27202;BME280;14717;46.924;15.474;2023-03-21T12:50:53;97693.69;;;19.94;37.37
27202;BME280;14717;46.924;15.474;2023-03-21T12:53:47;97690.47;;;20.07;36.73
27202;BME280;14717;46.924;15.474;2023-03-21T12:56:30;97684.78;;;20.61;36.05
27202;BME280;14717;46.924;15.474;2023-03-21T12:59:02;97681.91;;;20.73;35.17
27202;BME280;14717;46.924;15.474;2023-03-21T13:01:31;97679.19;;;20.19;35.10
27202;BME280;14717;46.924;15.474;2023-03-21T13:04:29;97677.50;;;20.30;35.72
27202;BME280;14717;46.924;15.474;2023-03-21T13:06:59;97668.22;;;20.72;35.42
27202;BME280;14717;46.924;15.474;2023-03-21T13:09:38;97664.16;;;20.69;34.80
27202;BME280;14717;46.924;15.474;2023-03-21T13:14:55;97653.72;;;20.39;34.95
27202;BME280;14717;46.924;15.474;2023-03-21T13:17:29;97658.13;;;20.40;34.81
27202;BME280;14717;46.924;15.474;2023-03-21T13:20:34;97658.66;;;20.30;34.99
27202;BME280;14717;46.924;15.474;2023-03-21T13:23:05;97659.81;;;20.87;35.31
27202;BME280;14717;46.924;15.474;2023-03-21T13:25:41;97645.06;;;21.24;33.93
27202;BME280;14717;46.924;15.474;2023-03-21T13:28:17;97644.72;;;21.10;33.79
27202;BME280;14717;46.924;15.474;2023-03-21T13:30:43;97651.59;;;21.13;34.02
27202;BME280;14717;46.924;15.474;2023-03-21T13:33:20;97645.19;;;21.12;33.47
27202;BME280;14717;46.924;15.474;2023-03-21T13:35:56;97634.84;;;21.50;33.67
27202;BME280;14717;46.924;15.474;2023-03-21T13:38:26;97637.81;;;21.23;33.55
27202;BME280;14717;46.924;15.474;2023-03-21T13:41:32;97629.81;;;21.25;33.74
27202;BME280;14717;46.924;15.474;2023-03-21T13:51:42;97630.16;;;20.90;33.54
27202;BME280;14717;46.924;15.474;2023-03-21T13:59:37;97633.41;;;20.30;35.08
27202;BME280;14717;46.924;15.474;2023-03-21T14:05:01;97613.19;;;20.09;35.22
27202;BME280;14717;46.924;15.474;2023-03-21T14:07:30;97614.97;;;20.29;35.74
27202;BME280;14717;46.924;15.474;2023-03-21T14:10:06;97608.16;;;20.15;36.01
27202;BME280;14717;46.924;15.474;2023-03-21T14:12:39;97606.59;;;20.17;36.29
27202;BME280;14717;46.924;15.474;2023-03-21T14:15:21;97594.28;;;20.37;36.04
27202;BME280;14717;46.924;15.474;2023-03-21T14:17:55;97608.97;;;20.77;35.31
27202;BME280;14717;46.924;15.474;2023-03-21T14:20:25;97597.81;;;20.80;34.97
27202;BME280;14717;46.924;15.474;2023-03-21T14:22:52;97591.69;;;20.90;35.08
27202;BME280;14717;46.924;15.474;2023-03-21T14:25:20;97588.38;;;21.03;34.55
27202;BME280;14717;46.924;15.474;2023-03-21T14:27:52;97594.13;;;20.61;34.39
27202;BME280;14717;46.924;15.474;2023-03-21T14:30:22;97591.69;;;20.59;34.34
27202;BME280;14717;46.924;15.474;2023-03-21T14:32:49;97589.81;;;20.97;34.56
27202;BME280;14717;46.924;15.474;2023-03-21T14:35:14;97588.16;;;20.78;34.79